sensor_id;sensor_type;location;lat;lon;timestamp;temperature;humidity
5061;DHT22;2549;52.128;21.068;2024-01-15T00:00:22;5.40;99.90
5061;DHT22;2549;52.128;21.068;2024-01-15T00:02:49;5.40;99.90
5061;DHT22;2549;52.128;21.068;2024-01-15T00:05:16;5.40;99.90
5061;DHT22;2549;52.128;21.068;2024-01-15T00:07:42;5.40;99.90
5061;DHT22;2549;52.128;21.068;2024-01-15T00:10:09;5.40;99.90
5061;DHT22;2549;52.128;21.068;2024-01-15T00:12:36;5.40;99.90
5061;DHT22;2549;52.128;21.068;2024-01-15T00:15:04;5.30;99.90
5061;DHT22;2549;52.128;21.068;2024-01-15T00:17:31;5.30;99.90
5061;DHT22;2549;52.128;21.068;2024-01-15T00:19:58;5.40;99.90
5061;DHT22;2549;52.128;21.068;2024-01-15T00:22:26;5.30;99.90
5061;DHT22;2549;52.128;21.068;2024-01-15T00:24:54;5.30;99.90
5061;DHT22;2549;52.128;21.068;2024-01-15T00:27:21;5.30;99.90
5061;DHT22;2549;52.128;21.068;2024-01-15T00:29:48;5.30;99.90
5061;DHT22;2549;52.128;21.068;2024-01-15T00:32:17;5.30;99.90
5061;DHT22;2549;52.128;21.068;2024-01-15T00:34:43;5.30;99.90
5061;DHT22;2549;52.128;21.068;2024-01-15T00:37:11;5.30;99.90
5061;DHT22;2549;52.128;21.068;2024-01-15T00:39:37;5.30;99.90
5061;DHT22;2549;52.128;21.068;2024-01-15T00:42:05;5.30;99.90
5061;DHT22;2549;52.128;21.068;2024-01-15T00:44:31;5.30;99.90
5061;DHT22;2549;52.128;21.068;2024-01-15T00:46:58;5.30;99.90
5061;DHT22;2549;52.128;21.068;2024-01-15T00:49:27;5.30;99.90
5061;DHT22;2549;52.128;21.068;2024-01-15T00:51:54;5.30;99.90
5061;DHT22;2549;52.128;21.068;2024-01-15T00:54:21;5.30;99.90
5061;DHT22;2549;52.128;21.068;2024-01-15T00:56:48;5.30;99.90
5061;DHT22;2549;52.128;21.068;2024-01-15T00:59:16;5.30;99.90
5061;DHT22;2549;52.128;21.068;2024-01-15T01:01:43;5.30;99.90
5061;DHT22;2549;52.128;21.068;2024-01-15T01:04:10;5.30;99.90
5061;DHT22;2549;52.128;21.068;2024-01-15T01:06:38;5.30;99.90
5061;DHT22;2549;52.128;21.068;2024-01-15T01:09:05;5.30;99.90
5061;DHT22;2549;52.128;21.068;2024-01-15T01:11:32;5.30;99.90
5061;DHT22;2549;52.128;21.068;2024-01-15T01:13:58;5.30;99.90
5061;DHT22;2549;52.128;21.068;2024-01-15T01:16:25;5.30;99.90
5061;DHT22;2549;52.128;21.068;2024-01-15T01:18:52;5.30;99.90
5061;DHT22;2549;52.128;21.068;2024-01-15T01:21:19;5.30;99.90
5061;DHT22;2549;52.128;21.068;2024-01-15T01:23:46;5.30;99.90
5061;DHT22;2549;52.128;21.068;2024-01-15T01:26:17;5.30;99.90
5061;DHT22;2549;52.128;21.068;2024-01-15T01:28:44;5.30;99.90
5061;DHT22;2549;52.128;21.068;2024-01-15T01:31:11;5.30;99.90
5061;DHT22;2549;52.128;21.068;2024-01-15T01:33:39;5.20;99.90
5061;DHT22;2549;52.128;21.068;2024-01-15T01:36:09;5.20;99.90
5061;DHT22;2549;52.128;21.068;2024-01-15T01:38:37;5.20;99.90
5061;DHT22;2549;52.128;21.068;2024-01-15T01:41:04;5.20;99.90
5061;DHT22;2549;52.128;21.068;2024-01-15T01:43:31;5.20;99.90
5061;DHT22;2549;52.128;21.068;2024-01-15T01:46:00;5.20;99.90
5061;DHT22;2549;52.128;21.068;2024-01-15T01:48:28;5.20;99.90
5061;DHT22;2549;52.128;21.068;2024-01-15T01:50:59;5.20;99.90
5061;DHT22;2549;52.128;21.068;2024-01-15T01:53:29;5.20;99.90
5061;DHT22;2549;52.128;21.068;2024-01-15T01:55:58;5.20;99.90
5061;DHT22;2549;52.128;21.068;2024-01-15T01:58:25;5.20;99.90
5061;DHT22;2549;52.128;21.068;2024-01-15T02:00:53;5.20;99.90
5061;DHT22;2549;52.128;21.068;2024-01-15T02:03:20;5.20;99.90
5061;DHT22;2549;52.128;21.068;2024-01-15T02:05:48;5.20;99.90
5061;DHT22;2549;52.128;21.068;2024-01-15T02:08:16;5.20;99.90
5061;DHT22;2549;52.128;21.068;2024-01-15T02:10:43;5.20;99.90
5061;DHT22;2549;52.128;21.068;2024-01-15T02:13:10;5.20;99.90
5061;DHT22;2549;52.128;21.068;2024-01-15T02:15:37;5.20;99.90
5061;DHT22;2549;52.128;21.068;2024-01-15T02:18:06;5.20;99.90
5061;DHT22;2549;52.128;21.068;2024-01-15T02:20:35;5.20;99.90
5061;DHT22;2549;52.128;21.068;2024-01-15T02:23:13;5.30;99.90
5061;DHT22;2549;52.128;21.068;2024-01-15T02:25:42;5.30;99.90
5061;DHT22;2549;52.128;21.068;2024-01-15T02:28:17;5.20;99.90
5061;DHT22;2549;52.128;21.068;2024-01-15T02:30:44;5.20;99.90
5061;DHT22;2549;52.128;21.068;2024-01-15T02:33:12;5.20;99.90
5061;DHT22;2549;52.128;21.068;2024-01-15T02:35:40;5.20;99.90
5061;DHT22;2549;52.128;21.068;2024-01-15T02:38:07;5.20;99.90
5061;DHT22;2549;52.128;21.068;2024-01-15T02:40:35;5.20;99.90
5061;DHT22;2549;52.128;21.068;2024-01-15T02:43:02;5.20;99.90
5061;DHT22;2549;52.128;21.068;2024-01-15T02:45:30;5.20;99.90
5061;DHT22;2549;52.128;21.068;2024-01-15T02:47:57;5.20;99.90
5061;DHT22;2549;52.128;21.068;2024-01-15T02:50:24;5.20;99.90
5061;DHT22;2549;52.128;21.068;2024-01-15T02:52:51;5.20;99.90
5061;DHT22;2549;52.128;21.068;2024-01-15T02:55:18;5.20;99.90
5061;DHT22;2549;52.128;21.068;2024-01-15T02:57:45;5.20;99.90
5061;DHT22;2549;52.128;21.068;2024-01-15T03:00:12;5.20;99.90
5061;DHT22;2549;52.128;21.068;2024-01-15T03:02:40;5.20;99.90
5061;DHT22;2549;52.128;21.068;2024-01-15T03:05:12;5.20;99.90
5061;DHT22;2549;52.128;21.068;2024-01-15T03:07:39;5.20;99.90
5061;DHT22;2549;52.128;21.068;2024-01-15T03:10:06;5.20;99.90
5061;DHT22;2549;52.128;21.068;2024-01-15T03:12:33;5.20;99.90
5061;DHT22;2549;52.128;21.068;2024-01-15T03:15:01;5.20;99.90
5061;DHT22;2549;52.128;21.068;2024-01-15T03:17:28;5.20;99.90
5061;DHT22;2549;52.128;21.068;2024-01-15T03:19:54;5.20;99.90
5061;DHT22;2549;52.128;21.068;2024-01-15T03:22:21;5.20;99.90
5061;DHT22;2549;52.128;21.068;2024-01-15T03:24:48;5.20;99.90
5061;DHT22;2549;52.128;21.068;2024-01-15T03:27:16;5.20;99.90
5061;DHT22;2549;52.128;21.068;2024-01-15T03:29:43;5.20;99.90
5061;DHT22;2549;52.128;21.068;2024-01-15T03:32:10;5.20;99.90
5061;DHT22;2549;52.128;21.068;2024-01-15T03:34:36;5.20;99.90
5061;DHT22;2549;52.128;21.068;2024-01-15T03:37:04;5.20;99.90
5061;DHT22;2549;52.128;21.068;2024-01-15T03:39:30;5.20;99.90
5061;DHT22;2549;52.128;21.068;2024-01-15T03:41:57;5.20;99.90
5061;DHT22;2549;52.128;21.068;2024-01-15T03:44:24;5.20;99.90
5061;DHT22;2549;52.128;21.068;2024-01-15T03:46:52;5.10;99.90
5061;DHT22;2549;52.128;21.068;2024-01-15T03:49:19;5.10;99.90
5061;DHT22;2549;52.128;21.068;2024-01-15T03:51:46;5.10;99.90
5061;DHT22;2549;52.128;21.068;2024-01-15T03:54:13;5.10;99.90
5061;DHT22;2549;52.128;21.068;2024-01-15T03:56:42;5.20;99.90
5061;DHT22;2549;52.128;21.068;2024-01-15T03:59:08;5.20;99.90
5061;DHT22;2549;52.128;21.068;2024-01-15T04:01:35;5.20;99.90
5061;DHT22;2549;52.128;21.068;2024-01-15T04:04:02;5.10;99.90
5061;DHT22;2549;52.128;21.068;2024-01-15T04:06:29;5.20;99.90
5061;DHT22;2549;52.128;21.068;2024-01-15T04:08:56;5.10;99.90
5061;DHT22;2549;52.128;21.068;2024-01-15T04:11:23;5.10;99.90
5061;DHT22;2549;52.128;21.068;2024-01-15T04:13:50;5.10;99.90
5061;DHT22;2549;52.128;21.068;2024-01-15T04:16:17;5.10;99.90
5061;DHT22;2549;52.128;21.068;2024-01-15T04:18:43;5.10;99.90
5061;DHT22;2549;52.128;21.068;2024-01-15T04:21:10;5.10;99.90
5061;DHT22;2549;52.128;21.068;2024-01-15T04:23:39;5.10;99.90
5061;DHT22;2549;52.128;21.068;2024-01-15T04:26:06;5.10;99.90
5061;DHT22;2549;52.128;21.068;2024-01-15T04:28:32;5.10;99.90
5061;DHT22;2549;52.128;21.068;2024-01-15T04:30:59;5.10;99.90
5061;DHT22;2549;52.128;21.068;2024-01-15T04:33:26;5.10;99.90
5061;DHT22;2549;52.128;21.068;2024-01-15T04:35:53;5.10;99.90
5061;DHT22;2549;52.128;21.068;2024-01-15T04:38:20;5.10;99.90
5061;DHT22;2549;52.128;21.068;2024-01-15T04:40:47;5.10;99.90
5061;DHT22;2549;52.128;21.068;2024-01-15T04:43:14;5.10;99.90
5061;DHT22;2549;52.128;21.068;2024-01-15T04:45:41;5.10;99.90
5061;DHT22;2549;52.128;21.068;2024-01-15T04:48:08;5.10;99.90
5061;DHT22;2549;52.128;21.068;2024-01-15T04:50:35;5.10;99.90
5061;DHT22;2549;52.128;21.068;2024-01-15T04:53:02;5.10;99.90
5061;DHT22;2549;52.128;21.068;2024-01-15T04:55:29;5.10;99.90
5061;DHT22;2549;52.128;21.068;2024-01-15T04:57:56;5.10;99.90
5061;DHT22;2549;52.128;21.068;2024-01-15T05:00:23;5.10;99.90
5061;DHT22;2549;52.128;21.068;2024-01-15T05:02:50;5.10;99.90
5061;DHT22;2549;52.128;21.068;2024-01-15T05:05:16;5.10;99.90
5061;DHT22;2549;52.128;21.068;2024-01-15T05:07:43;5.10;99.90
5061;DHT22;2549;52.128;21.068;2024-01-15T05:10:10;5.10;99.90
5061;DHT22;2549;52.128;21.068;2024-01-15T05:12:37;5.10;99.90
5061;DHT22;2549;52.128;21.068;2024-01-15T05:15:04;5.10;99.90
5061;DHT22;2549;52.128;21.068;2024-01-15T05:17:31;5.10;99.90
5061;DHT22;2549;52.128;21.068;2024-01-15T05:19:58;5.00;99.90
5061;DHT22;2549;52.128;21.068;2024-01-15T05:22:26;5.00;99.90
5061;DHT22;2549;52.128;21.068;2024-01-15T05:24:53;5.00;99.90
5061;DHT22;2549;52.128;21.068;2024-01-15T05:27:20;5.10;99.90
5061;DHT22;2549;52.128;21.068;2024-01-15T05:29:47;5.00;99.90
5061;DHT22;2549;52.128;21.068;2024-01-15T05:32:13;5.10;99.90
5061;DHT22;2549;52.128;21.068;2024-01-15T05:34:40;5.00;99.90
5061;DHT22;2549;52.128;21.068;2024-01-15T05:37:07;5.10;99.90
5061;DHT22;2549;52.128;21.068;2024-01-15T05:39:34;5.10;99.90
5061;DHT22;2549;52.128;21.068;2024-01-15T05:42:01;5.10;99.90
5061;DHT22;2549;52.128;21.068;2024-01-15T05:44:28;5.10;99.90
5061;DHT22;2549;52.128;21.068;2024-01-15T05:46:55;5.10;99.90
5061;DHT22;2549;52.128;21.068;2024-01-15T05:49:21;5.10;99.90
5061;DHT22;2549;52.128;21.068;2024-01-15T05:51:48;5.10;99.90
5061;DHT22;2549;52.128;21.068;2024-01-15T05:54:16;5.10;99.90
5061;DHT22;2549;52.128;21.068;2024-01-15T05:56:43;5.10;99.90
5061;DHT22;2549;52.128;21.068;2024-01-15T05:59:09;5.10;99.90
5061;DHT22;2549;52.128;21.068;2024-01-15T06:01:41;5.10;99.90
5061;DHT22;2549;52.128;21.068;2024-01-15T06:04:08;5.10;99.90
5061;DHT22;2549;52.128;21.068;2024-01-15T06:06:35;5.10;99.90
5061;DHT22;2549;52.128;21.068;2024-01-15T06:09:02;5.10;99.90
5061;DHT22;2549;52.128;21.068;2024-01-15T06:11:32;5.10;99.90
5061;DHT22;2549;52.128;21.068;2024-01-15T06:13:59;5.10;99.90
5061;DHT22;2549;52.128;21.068;2024-01-15T06:16:27;5.10;99.90
5061;DHT22;2549;52.128;21.068;2024-01-15T06:18:54;5.10;99.90
5061;DHT22;2549;52.128;21.068;2024-01-15T06:21:21;5.10;99.90
5061;DHT22;2549;52.128;21.068;2024-01-15T06:23:49;5.10;99.90
5061;DHT22;2549;52.128;21.068;2024-01-15T06:26:16;5.10;99.90
5061;DHT22;2549;52.128;21.068;2024-01-15T06:28:43;5.10;99.90
5061;DHT22;2549;52.128;21.068;2024-01-15T06:31:09;5.10;99.90
5061;DHT22;2549;52.128;21.068;2024-01-15T06:33:37;5.10;99.90
5061;DHT22;2549;52.128;21.068;2024-01-15T06:36:05;5.10;99.90
5061;DHT22;2549;52.128;21.068;2024-01-15T06:38:32;5.10;99.90
5061;DHT22;2549;52.128;21.068;2024-01-15T06:40:59;5.10;99.90
5061;DHT22;2549;52.128;21.068;2024-01-15T06:43:26;5.10;99.90
5061;DHT22;2549;52.128;21.068;2024-01-15T06:45:53;5.10;99.90
5061;DHT22;2549;52.128;21.068;2024-01-15T06:48:20;5.10;99.90
5061;DHT22;2549;52.128;21.068;2024-01-15T06:50:47;5.10;99.90
5061;DHT22;2549;52.128;21.068;2024-01-15T06:53:14;5.10;99.90
5061;DHT22;2549;52.128;21.068;2024-01-15T06:55:41;5.20;99.90
5061;DHT22;2549;52.128;21.068;2024-01-15T06:58:08;5.20;99.90
5061;DHT22;2549;52.128;21.068;2024-01-15T07:00:35;5.20;99.90
5061;DHT22;2549;52.128;21.068;2024-01-15T07:03:02;5.10;99.90
5061;DHT22;2549;52.128;21.068;2024-01-15T07:05:29;5.10;99.90
5061;DHT22;2549;52.128;21.068;2024-01-15T07:07:57;5.10;99.90
5061;DHT22;2549;52.128;21.068;2024-01-15T07:10:24;5.10;99.90
5061;DHT22;2549;52.128;21.068;2024-01-15T07:12:51;5.10;99.90
5061;DHT22;2549;52.128;21.068;2024-01-15T07:15:18;5.10;99.90
5061;DHT22;2549;52.128;21.068;2024-01-15T07:17:45;5.20;99.90
5061;DHT22;2549;52.128;21.068;2024-01-15T07:20:12;5.20;99.90
5061;DHT22;2549;52.128;21.068;2024-01-15T07:22:39;5.20;99.90
5061;DHT22;2549;52.128;21.068;2024-01-15T07:25:06;5.20;99.90
5061;DHT22;2549;52.128;21.068;2024-01-15T07:27:33;5.20;99.90
5061;DHT22;2549;52.128;21.068;2024-01-15T07:30:00;5.20;99.90
5061;DHT22;2549;52.128;21.068;2024-01-15T07:32:29;5.20;99.90
5061;DHT22;2549;52.128;21.068;2024-01-15T07:34:56;5.20;99.90
5061;DHT22;2549;52.128;21.068;2024-01-15T07:37:23;5.10;99.90
5061;DHT22;2549;52.128;21.068;2024-01-15T07:39:50;5.20;99.90
5061;DHT22;2549;52.128;21.068;2024-01-15T07:42:17;5.20;99.90
5061;DHT22;2549;52.128;21.068;2024-01-15T07:44:44;5.20;99.90
5061;DHT22;2549;52.128;21.068;2024-01-15T07:47:11;5.10;99.90
5061;DHT22;2549;52.128;21.068;2024-01-15T07:49:38;5.10;99.90
5061;DHT22;2549;52.128;21.068;2024-01-15T07:52:06;5.10;99.90
5061;DHT22;2549;52.128;21.068;2024-01-15T07:54:33;5.10;99.90
5061;DHT22;2549;52.128;21.068;2024-01-15T07:57:01;5.10;99.90
5061;DHT22;2549;52.128;21.068;2024-01-15T07:59:29;5.10;99.90
5061;DHT22;2549;52.128;21.068;2024-01-15T08:01:58;5.10;99.90
5061;DHT22;2549;52.128;21.068;2024-01-15T08:04:26;5.00;99.90
5061;DHT22;2549;52.128;21.068;2024-01-15T08:06:53;5.00;99.90
5061;DHT22;2549;52.128;21.068;2024-01-15T08:09:20;5.00;99.90
5061;DHT22;2549;52.128;21.068;2024-01-15T08:11:48;5.10;99.90
5061;DHT22;2549;52.128;21.068;2024-01-15T08:14:17;5.10;99.90
5061;DHT22;2549;52.128;21.068;2024-01-15T08:16:44;5.10;99.90
5061;DHT22;2549;52.128;21.068;2024-01-15T08:19:11;5.10;99.90
5061;DHT22;2549;52.128;21.068;2024-01-15T08:21:38;5.00;99.90
5061;DHT22;2549;52.128;21.068;2024-01-15T08:24:05;5.00;99.90
5061;DHT22;2549;52.128;21.068;2024-01-15T08:26:32;5.00;99.90
5061;DHT22;2549;52.128;21.068;2024-01-15T08:28:59;5.00;99.90
5061;DHT22;2549;52.128;21.068;2024-01-15T08:31:26;5.00;99.90
5061;DHT22;2549;52.128;21.068;2024-01-15T08:33:54;5.00;99.90
5061;DHT22;2549;52.128;21.068;2024-01-15T08:36:23;5.00;99.90
5061;DHT22;2549;52.128;21.068;2024-01-15T08:38:51;5.00;99.90
5061;DHT22;2549;52.128;21.068;2024-01-15T08:41:18;5.10;99.90
5061;DHT22;2549;52.128;21.068;2024-01-15T08:43:45;5.10;99.90
5061;DHT22;2549;52.128;21.068;2024-01-15T08:46:12;5.10;99.90
5061;DHT22;2549;52.128;21.068;2024-01-15T08:48:39;5.10;99.90
5061;DHT22;2549;52.128;21.068;2024-01-15T08:51:06;5.10;99.90
5061;DHT22;2549;52.128;21.068;2024-01-15T08:53:35;5.10;99.90
5061;DHT22;2549;52.128;21.068;2024-01-15T08:56:02;5.10;99.90
5061;DHT22;2549;52.128;21.068;2024-01-15T08:58:29;5.10;99.90
5061;DHT22;2549;52.128;21.068;2024-01-15T09:00:55;5.10;99.90
5061;DHT22;2549;52.128;21.068;2024-01-15T09:03:23;5.10;99.90
5061;DHT22;2549;52.128;21.068;2024-01-15T09:05:50;5.10;99.90
5061;DHT22;2549;52.128;21.068;2024-01-15T09:08:18;5.10;99.90
5061;DHT22;2549;52.128;21.068;2024-01-15T09:10:45;5.10;99.90
5061;DHT22;2549;52.128;21.068;2024-01-15T09:13:12;5.10;99.90
5061;DHT22;2549;52.128;21.068;2024-01-15T09:15:39;5.10;99.90
5061;DHT22;2549;52.128;21.068;2024-01-15T09:18:06;5.10;99.90
5061;DHT22;2549;52.128;21.068;2024-01-15T09:20:34;5.10;99.90
5061;DHT22;2549;52.128;21.068;2024-01-15T09:23:02;5.10;99.90
5061;DHT22;2549;52.128;21.068;2024-01-15T09:25:29;5.10;99.90
5061;DHT22;2549;52.128;21.068;2024-01-15T09:27:56;5.10;99.90
5061;DHT22;2549;52.128;21.068;2024-01-15T09:30:23;5.20;99.90
5061;DHT22;2549;52.128;21.068;2024-01-15T09:32:50;5.20;99.90
5061;DHT22;2549;52.128;21.068;2024-01-15T09:35:18;5.30;99.90
5061;DHT22;2549;52.128;21.068;2024-01-15T09:37:46;5.30;99.90
5061;DHT22;2549;52.128;21.068;2024-01-15T09:40:14;5.30;99.90
5061;DHT22;2549;52.128;21.068;2024-01-15T09:42:45;5.40;99.90
5061;DHT22;2549;52.128;21.068;2024-01-15T09:45:13;5.40;99.90
5061;DHT22;2549;52.128;21.068;2024-01-15T09:47:40;5.50;99.90
5061;DHT22;2549;52.128;21.068;2024-01-15T09:50:13;5.50;99.90
5061;DHT22;2549;52.128;21.068;2024-01-15T09:52:41;5.50;99.90
5061;DHT22;2549;52.128;21.068;2024-01-15T09:55:09;5.50;99.90
5061;DHT22;2549;52.128;21.068;2024-01-15T09:57:37;5.50;99.90
5061;DHT22;2549;52.128;21.068;2024-01-15T10:00:05;5.50;99.90
5061;DHT22;2549;52.128;21.068;2024-01-15T10:02:35;5.50;99.80
5061;DHT22;2549;52.128;21.068;2024-01-15T10:05:03;5.60;99.50
5061;DHT22;2549;52.128;21.068;2024-01-15T10:07:30;5.60;99.20
5061;DHT22;2549;52.128;21.068;2024-01-15T10:10:01;5.50;99.00
5061;DHT22;2549;52.128;21.068;2024-01-15T10:12:28;5.50;98.90
5061;DHT22;2549;52.128;21.068;2024-01-15T10:14:58;5.60;98.80
5061;DHT22;2549;52.128;21.068;2024-01-15T10:17:25;5.60;98.90
5061;DHT22;2549;52.128;21.068;2024-01-15T10:19:56;5.60;98.90
5061;DHT22;2549;52.128;21.068;2024-01-15T10:22:23;5.60;98.50
5061;DHT22;2549;52.128;21.068;2024-01-15T10:24:51;5.60;98.60
5061;DHT22;2549;52.128;21.068;2024-01-15T10:27:18;5.60;98.60
5061;DHT22;2549;52.128;21.068;2024-01-15T10:29:45;5.60;98.20
5061;DHT22;2549;52.128;21.068;2024-01-15T10:32:12;5.60;98.20
5061;DHT22;2549;52.128;21.068;2024-01-15T10:34:40;5.60;98.20
5061;DHT22;2549;52.128;21.068;2024-01-15T10:37:09;5.60;98.30
5061;DHT22;2549;52.128;21.068;2024-01-15T10:39:36;5.60;98.20
5061;DHT22;2549;52.128;21.068;2024-01-15T10:42:05;5.60;98.00
5061;DHT22;2549;52.128;21.068;2024-01-15T10:44:33;5.50;98.10
5061;DHT22;2549;52.128;21.068;2024-01-15T10:47:01;5.60;98.40
5061;DHT22;2549;52.128;21.068;2024-01-15T10:49:28;5.60;98.80
5061;DHT22;2549;52.128;21.068;2024-01-15T10:52:01;5.60;99.10
5061;DHT22;2549;52.128;21.068;2024-01-15T10:54:29;5.60;99.20
5061;DHT22;2549;52.128;21.068;2024-01-15T10:56:57;5.70;99.20
5061;DHT22;2549;52.128;21.068;2024-01-15T10:59:24;5.70;99.50
5061;DHT22;2549;52.128;21.068;2024-01-15T11:01:52;5.80;99.20
5061;DHT22;2549;52.128;21.068;2024-01-15T11:04:23;5.80;99.30
5061;DHT22;2549;52.128;21.068;2024-01-15T11:06:55;5.80;99.10
5061;DHT22;2549;52.128;21.068;2024-01-15T11:09:24;5.80;99.10
5061;DHT22;2549;52.128;21.068;2024-01-15T11:14:42;5.70;98.90
5061;DHT22;2549;52.128;21.068;2024-01-15T11:17:12;5.70;99.20
5061;DHT22;2549;52.128;21.068;2024-01-15T11:19:48;5.70;99.20
5061;DHT22;2549;52.128;21.068;2024-01-15T11:25:01;5.70;98.90
5061;DHT22;2549;52.128;21.068;2024-01-15T11:27:41;5.70;98.90
5061;DHT22;2549;52.128;21.068;2024-01-15T11:30:09;5.70;98.70
5061;DHT22;2549;52.128;21.068;2024-01-15T11:32:40;5.70;98.80
5061;DHT22;2549;52.128;21.068;2024-01-15T11:35:10;5.70;98.70
5061;DHT22;2549;52.128;21.068;2024-01-15T11:43:00;5.70;98.60
5061;DHT22;2549;52.128;21.068;2024-01-15T11:45:27;5.70;98.60
5061;DHT22;2549;52.128;21.068;2024-01-15T11:50:30;5.70;98.80
5061;DHT22;2549;52.128;21.068;2024-01-15T11:53:02;5.70;99.20
5061;DHT22;2549;52.128;21.068;2024-01-15T11:55:39;5.70;99.60
5061;DHT22;2549;52.128;21.068;2024-01-15T11:58:10;5.70;99.70
5061;DHT22;2549;52.128;21.068;2024-01-15T12:00:45;5.60;99.90
5061;DHT22;2549;52.128;21.068;2024-01-15T12:03:12;5.70;99.90
5061;DHT22;2549;52.128;21.068;2024-01-15T12:05:40;5.60;99.70
5061;DHT22;2549;52.128;21.068;2024-01-15T12:08:09;5.60;99.80
5061;DHT22;2549;52.128;21.068;2024-01-15T12:10:40;5.60;99.90
5061;DHT22;2549;52.128;21.068;2024-01-15T12:13:14;5.60;99.90
5061;DHT22;2549;52.128;21.068;2024-01-15T12:15:47;5.70;99.90
5061;DHT22;2549;52.128;21.068;2024-01-15T12:18:17;5.60;99.90
5061;DHT22;2549;52.128;21.068;2024-01-15T12:20:45;5.60;99.90
5061;DHT22;2549;52.128;21.068;2024-01-15T12:23:16;5.60;99.90
5061;DHT22;2549;52.128;21.068;2024-01-15T12:25:44;5.60;99.90
5061;DHT22;2549;52.128;21.068;2024-01-15T12:28:11;5.60;99.90
5061;DHT22;2549;52.128;21.068;2024-01-15T12:30:39;5.60;99.90
5061;DHT22;2549;52.128;21.068;2024-01-15T12:33:07;5.60;99.90
5061;DHT22;2549;52.128;21.068;2024-01-15T12:35:36;5.50;99.90
5061;DHT22;2549;52.128;21.068;2024-01-15T12:38:03;5.50;99.90
5061;DHT22;2549;52.128;21.068;2024-01-15T12:40:32;5.50;99.90
5061;DHT22;2549;52.128;21.068;2024-01-15T12:43:00;5.50;99.90
5061;DHT22;2549;52.128;21.068;2024-01-15T12:45:27;5.50;99.90
5061;DHT22;2549;52.128;21.068;2024-01-15T12:47:54;5.40;99.90
5061;DHT22;2549;52.128;21.068;2024-01-15T12:50:26;5.40;99.90
5061;DHT22;2549;52.128;21.068;2024-01-15T12:52:53;5.40;99.90
5061;DHT22;2549;52.128;21.068;2024-01-15T12:55:20;5.40;99.90
5061;DHT22;2549;52.128;21.068;2024-01-15T12:57:47;5.40;99.90
5061;DHT22;2549;52.128;21.068;2024-01-15T13:00:14;5.40;99.90
5061;DHT22;2549;52.128;21.068;2024-01-15T13:02:42;5.40;99.90
5061;DHT22;2549;52.128;21.068;2024-01-15T13:05:11;5.30;99.90
5061;DHT22;2549;52.128;21.068;2024-01-15T13:07:40;5.30;99.90
5061;DHT22;2549;52.128;21.068;2024-01-15T13:10:07;5.30;99.90
5061;DHT22;2549;52.128;21.068;2024-01-15T13:12:37;5.30;99.90
5061;DHT22;2549;52.128;21.068;2024-01-15T13:15:05;5.20;99.90
5061;DHT22;2549;52.128;21.068;2024-01-15T13:17:32;5.20;99.90
5061;DHT22;2549;52.128;21.068;2024-01-15T13:19:59;5.20;99.90
5061;DHT22;2549;52.128;21.068;2024-01-15T13:22:27;5.20;99.90
5061;DHT22;2549;52.128;21.068;2024-01-15T13:24:59;5.20;99.90
5061;DHT22;2549;52.128;21.068;2024-01-15T13:27:26;5.20;99.90
5061;DHT22;2549;52.128;21.068;2024-01-15T13:29:53;5.10;99.90
5061;DHT22;2549;52.128;21.068;2024-01-15T13:32:27;5.10;99.90
5061;DHT22;2549;52.128;21.068;2024-01-15T13:34:59;5.10;99.90
5061;DHT22;2549;52.128;21.068;2024-01-15T13:37:26;5.10;99.90
5061;DHT22;2549;52.128;21.068;2024-01-15T13:39:54;5.10;99.90
5061;DHT22;2549;52.128;21.068;2024-01-15T13:42:21;5.10;99.90
5061;DHT22;2549;52.128;21.068;2024-01-15T13:44:49;5.10;99.90
5061;DHT22;2549;52.128;21.068;2024-01-15T13:47:16;5.10;99.90
5061;DHT22;2549;52.128;21.068;2024-01-15T13:49:43;5.10;99.90
5061;DHT22;2549;52.128;21.068;2024-01-15T13:52:10;5.10;99.90
5061;DHT22;2549;52.128;21.068;2024-01-15T13:54:37;5.10;99.90
5061;DHT22;2549;52.128;21.068;2024-01-15T13:57:18;5.10;99.90
5061;DHT22;2549;52.128;21.068;2024-01-15T13:59:47;5.10;99.90
5061;DHT22;2549;52.128;21.068;2024-01-15T14:02:14;5.10;99.90
5061;DHT22;2549;52.128;21.068;2024-01-15T14:04:47;5.20;99.90
5061;DHT22;2549;52.128;21.068;2024-01-15T14:07:14;5.10;99.90
5061;DHT22;2549;52.128;21.068;2024-01-15T14:09:42;5.20;99.90
5061;DHT22;2549;52.128;21.068;2024-01-15T14:12:09;5.10;99.90
5061;DHT22;2549;52.128;21.068;2024-01-15T14:14:36;5.10;99.90
5061;DHT22;2549;52.128;21.068;2024-01-15T14:17:03;5.20;99.90
5061;DHT22;2549;52.128;21.068;2024-01-15T14:19:30;5.10;99.90
5061;DHT22;2549;52.128;21.068;2024-01-15T14:21:57;5.10;99.90
5061;DHT22;2549;52.128;21.068;2024-01-15T14:24:24;5.10;99.90
5061;DHT22;2549;52.128;21.068;2024-01-15T14:26:51;5.20;99.90
5061;DHT22;2549;52.128;21.068;2024-01-15T14:29:18;5.10;99.90
5061;DHT22;2549;52.128;21.068;2024-01-15T14:31:49;5.10;99.90
5061;DHT22;2549;52.128;21.068;2024-01-15T14:34:16;5.10;99.90
5061;DHT22;2549;52.128;21.068;2024-01-15T14:36:45;5.10;99.90
5061;DHT22;2549;52.128;21.068;2024-01-15T14:39:13;5.10;99.90
5061;DHT22;2549;52.128;21.068;2024-01-15T14:41:40;5.10;99.90
5061;DHT22;2549;52.128;21.068;2024-01-15T14:44:07;5.10;99.90
5061;DHT22;2549;52.128;21.068;2024-01-15T14:46:34;5.10;99.90
5061;DHT22;2549;52.128;21.068;2024-01-15T14:49:01;5.10;99.90
5061;DHT22;2549;52.128;21.068;2024-01-15T14:51:29;5.10;99.90
5061;DHT22;2549;52.128;21.068;2024-01-15T14:53:56;5.10;99.90
5061;DHT22;2549;52.128;21.068;2024-01-15T14:56:23;5.00;99.90
5061;DHT22;2549;52.128;21.068;2024-01-15T14:58:49;5.10;99.90
5061;DHT22;2549;52.128;21.068;2024-01-15T15:01:16;5.10;99.90
5061;DHT22;2549;52.128;21.068;2024-01-15T15:03:43;5.00;99.90
5061;DHT22;2549;52.128;21.068;2024-01-15T15:06:13;5.00;99.90
5061;DHT22;2549;52.128;21.068;2024-01-15T15:08:40;5.00;99.90
5061;DHT22;2549;52.128;21.068;2024-01-15T15:11:07;5.00;99.90
5061;DHT22;2549;52.128;21.068;2024-01-15T15:13:35;5.00;99.90
5061;DHT22;2549;52.128;21.068;2024-01-15T15:16:11;5.00;99.90
5061;DHT22;2549;52.128;21.068;2024-01-15T15:18:40;5.00;99.90
5061;DHT22;2549;52.128;21.068;2024-01-15T15:21:10;5.00;99.90
5061;DHT22;2549;52.128;21.068;2024-01-15T15:23:38;5.00;99.90
5061;DHT22;2549;52.128;21.068;2024-01-15T15:26:05;5.00;99.90
5061;DHT22;2549;52.128;21.068;2024-01-15T15:28:32;5.00;99.90
5061;DHT22;2549;52.128;21.068;2024-01-15T15:31:03;5.00;99.90
5061;DHT22;2549;52.128;21.068;2024-01-15T15:33:31;5.00;99.90
5061;DHT22;2549;52.128;21.068;2024-01-15T15:35:58;4.90;99.90
5061;DHT22;2549;52.128;21.068;2024-01-15T15:38:26;4.90;99.90
5061;DHT22;2549;52.128;21.068;2024-01-15T15:40:53;4.90;99.90
5061;DHT22;2549;52.128;21.068;2024-01-15T15:43:22;4.90;99.90
5061;DHT22;2549;52.128;21.068;2024-01-15T15:45:49;4.80;99.90
5061;DHT22;2549;52.128;21.068;2024-01-15T15:48:16;4.90;99.90
5061;DHT22;2549;52.128;21.068;2024-01-15T15:50:43;4.90;99.90
5061;DHT22;2549;52.128;21.068;2024-01-15T15:53:11;4.90;99.90
5061;DHT22;2549;52.128;21.068;2024-01-15T15:55:38;4.90;99.90
5061;DHT22;2549;52.128;21.068;2024-01-15T15:58:08;4.90;99.90
5061;DHT22;2549;52.128;21.068;2024-01-15T16:00:36;4.80;99.90
5061;DHT22;2549;52.128;21.068;2024-01-15T16:03:03;4.80;99.90
5061;DHT22;2549;52.128;21.068;2024-01-15T16:05:30;4.80;99.90
5061;DHT22;2549;52.128;21.068;2024-01-15T16:08:11;4.80;99.90
5061;DHT22;2549;52.128;21.068;2024-01-15T16:10:38;4.90;99.90
5061;DHT22;2549;52.128;21.068;2024-01-15T16:13:05;4.80;99.90
5061;DHT22;2549;52.128;21.068;2024-01-15T16:15:32;4.80;99.90
5061;DHT22;2549;52.128;21.068;2024-01-15T16:18:00;4.80;99.90